sensor_id;sensor_type;location;lat;lon;timestamp;P1;durP1;ratioP1;P2;durP2;ratioP2
79646;SDS011;69119;41.718;21.786;2023-12-20T00:01:54;61.75;;;35.30;;
79646;SDS011;69119;41.718;21.786;2023-12-20T00:04:20;73.60;;;38.30;;
79646;SDS011;69119;41.718;21.786;2023-12-20T00:06:46;63.13;;;30.83;;
79646;SDS011;69119;41.718;21.786;2023-12-20T00:09:12;69.43;;;34.55;;
79646;SDS011;69119;41.718;21.786;2023-12-20T00:11:38;64.78;;;32.45;;
79646;SDS011;69119;41.718;21.786;2023-12-20T00:14:07;65.88;;;35.80;;
79646;SDS011;69119;41.718;21.786;2023-12-20T00:16:33;63.53;;;34.53;;
79646;SDS011;69119;41.718;21.786;2023-12-20T00:18:59;66.43;;;35.58;;
79646;SDS011;69119;41.718;21.786;2023-12-20T00:21:25;62.38;;;36.22;;
79646;SDS011;69119;41.718;21.786;2023-12-20T00:23:51;60.60;;;35.45;;
79646;SDS011;69119;41.718;21.786;2023-12-20T00:26:17;46.85;;;29.55;;
79646;SDS011;69119;41.718;21.786;2023-12-20T00:28:43;44.80;;;27.33;;
79646;SDS011;69119;41.718;21.786;2023-12-20T00:31:09;50.97;;;28.25;;
79646;SDS011;69119;41.718;21.786;2023-12-20T00:33:35;59.80;;;37.85;;
79646;SDS011;69119;41.718;21.786;2023-12-20T00:36:01;64.40;;;36.80;;
79646;SDS011;69119;41.718;21.786;2023-12-20T00:38:27;44.50;;;26.55;;
79646;SDS011;69119;41.718;21.786;2023-12-20T00:40:54;44.78;;;26.00;;
79646;SDS011;69119;41.718;21.786;2023-12-20T00:43:20;50.58;;;28.88;;
79646;SDS011;69119;41.718;21.786;2023-12-20T00:45:46;56.83;;;32.13;;
79646;SDS011;69119;41.718;21.786;2023-12-20T00:48:12;65.32;;;37.45;;
79646;SDS011;69119;41.718;21.786;2023-12-20T00:50:38;67.82;;;38.63;;
79646;SDS011;69119;41.718;21.786;2023-12-20T00:53:04;64.78;;;33.67;;
79646;SDS011;69119;41.718;21.786;2023-12-20T00:55:30;59.97;;;35.55;;
79646;SDS011;69119;41.718;21.786;2023-12-20T00:57:56;55.58;;;32.15;;
79646;SDS011;69119;41.718;21.786;2023-12-20T01:00:24;51.28;;;30.08;;
79646;SDS011;69119;41.718;21.786;2023-12-20T01:02:50;65.18;;;34.30;;
79646;SDS011;69119;41.718;21.786;2023-12-20T01:05:17;53.58;;;26.65;;
79646;SDS011;69119;41.718;21.786;2023-12-20T01:07:44;47.75;;;29.40;;
79646;SDS011;69119;41.718;21.786;2023-12-20T01:10:10;65.35;;;32.50;;
79646;SDS011;69119;41.718;21.786;2023-12-20T01:12:36;62.95;;;35.55;;
79646;SDS011;69119;41.718;21.786;2023-12-20T01:15:02;72.55;;;39.97;;
79646;SDS011;69119;41.718;21.786;2023-12-20T01:17:28;73.20;;;39.10;;
79646;SDS011;69119;41.718;21.786;2023-12-20T01:19:54;59.88;;;34.38;;
79646;SDS011;69119;41.718;21.786;2023-12-20T01:25:20;69.60;;;39.40;;
79646;SDS011;69119;41.718;21.786;2023-12-20T01:27:46;65.28;;;35.05;;
79646;SDS011;69119;41.718;21.786;2023-12-20T01:30:13;69.30;;;39.30;;
79646;SDS011;69119;41.718;21.786;2023-12-20T01:32:39;61.25;;;32.70;;
79646;SDS011;69119;41.718;21.786;2023-12-20T01:35:06;88.10;;;36.15;;
79646;SDS011;69119;41.718;21.786;2023-12-20T01:37:32;85.65;;;34.92;;
79646;SDS011;69119;41.718;21.786;2023-12-20T01:39:58;112.75;;;39.03;;
79646;SDS011;69119;41.718;21.786;2023-12-20T01:42:24;88.60;;;36.65;;
79646;SDS011;69119;41.718;21.786;2023-12-20T01:44:50;72.55;;;31.80;;
79646;SDS011;69119;41.718;21.786;2023-12-20T01:47:16;73.88;;;31.73;;
79646;SDS011;69119;41.718;21.786;2023-12-20T01:49:43;72.75;;;31.27;;
79646;SDS011;69119;41.718;21.786;2023-12-20T01:52:09;62.03;;;23.48;;
79646;SDS011;69119;41.718;21.786;2023-12-20T01:54:35;160.15;;;36.53;;
79646;SDS011;69119;41.718;21.786;2023-12-20T01:57:01;72.50;;;28.40;;
79646;SDS011;69119;41.718;21.786;2023-12-20T01:59:28;92.90;;;33.72;;
79646;SDS011;69119;41.718;21.786;2023-12-20T02:01:55;71.10;;;33.13;;
79646;SDS011;69119;41.718;21.786;2023-12-20T02:04:21;80.00;;;32.88;;
79646;SDS011;69119;41.718;21.786;2023-12-20T02:06:47;151.30;;;37.58;;
79646;SDS011;69119;41.718;21.786;2023-12-20T02:09:14;49.33;;;19.50;;
79646;SDS011;69119;41.718;21.786;2023-12-20T02:11:40;92.47;;;32.85;;
79646;SDS011;69119;41.718;21.786;2023-12-20T02:14:07;86.15;;;26.33;;
79646;SDS011;69119;41.718;21.786;2023-12-20T02:16:33;70.88;;;26.90;;
79646;SDS011;69119;41.718;21.786;2023-12-20T02:18:59;27.48;;;16.27;;
79646;SDS011;69119;41.718;21.786;2023-12-20T02:21:25;32.42;;;17.58;;
79646;SDS011;69119;41.718;21.786;2023-12-20T02:23:58;63.47;;;26.70;;
79646;SDS011;69119;41.718;21.786;2023-12-20T02:26:24;50.28;;;19.52;;
79646;SDS011;69119;41.718;21.786;2023-12-20T02:28:50;45.20;;;19.00;;
79646;SDS011;69119;41.718;21.786;2023-12-20T02:31:16;45.92;;;19.88;;
79646;SDS011;69119;41.718;21.786;2023-12-20T02:33:42;90.68;;;28.42;;
79646;SDS011;69119;41.718;21.786;2023-12-20T02:36:08;74.90;;;27.50;;
79646;SDS011;69119;41.718;21.786;2023-12-20T02:38:34;50.70;;;23.85;;
79646;SDS011;69119;41.718;21.786;2023-12-20T02:41:00;56.30;;;22.08;;
79646;SDS011;69119;41.718;21.786;2023-12-20T02:43:26;46.40;;;18.40;;
79646;SDS011;69119;41.718;21.786;2023-12-20T02:45:52;49.15;;;23.20;;
79646;SDS011;69119;41.718;21.786;2023-12-20T02:48:18;53.65;;;21.48;;
79646;SDS011;69119;41.718;21.786;2023-12-20T02:50:45;41.50;;;17.02;;
79646;SDS011;69119;41.718;21.786;2023-12-20T02:55:37;11.65;;;9.32;;
79646;SDS011;69119;41.718;21.786;2023-12-20T02:58:03;22.27;;;13.25;;
79646;SDS011;69119;41.718;21.786;2023-12-20T03:00:29;86.95;;;26.58;;
79646;SDS011;69119;41.718;21.786;2023-12-20T03:02:56;45.75;;;14.38;;
79646;SDS011;69119;41.718;21.786;2023-12-20T03:05:22;116.35;;;31.95;;
79646;SDS011;69119;41.718;21.786;2023-12-20T03:07:48;76.00;;;24.05;;
79646;SDS011;69119;41.718;21.786;2023-12-20T03:10:14;159.63;;;35.60;;
79646;SDS011;69119;41.718;21.786;2023-12-20T03:12:40;129.73;;;38.92;;
79646;SDS011;69119;41.718;21.786;2023-12-20T03:15:06;70.25;;;28.95;;
79646;SDS011;69119;41.718;21.786;2023-12-20T03:17:32;98.65;;;36.47;;
79646;SDS011;69119;41.718;21.786;2023-12-20T03:19:58;129.43;;;39.88;;
79646;SDS011;69119;41.718;21.786;2023-12-20T03:22:24;67.57;;;26.05;;
79646;SDS011;69119;41.718;21.786;2023-12-20T03:24:50;141.75;;;34.95;;
79646;SDS011;69119;41.718;21.786;2023-12-20T03:27:16;142.93;;;40.38;;
79646;SDS011;69119;41.718;21.786;2023-12-20T03:29:42;150.02;;;37.78;;
79646;SDS011;69119;41.718;21.786;2023-12-20T03:32:08;73.03;;;27.38;;
79646;SDS011;69119;41.718;21.786;2023-12-20T03:34:35;52.10;;;22.52;;
79646;SDS011;69119;41.718;21.786;2023-12-20T03:37:01;134.68;;;34.20;;
79646;SDS011;69119;41.718;21.786;2023-12-20T03:39:27;130.10;;;37.08;;
79646;SDS011;69119;41.718;21.786;2023-12-20T03:41:53;78.90;;;29.17;;
79646;SDS011;69119;41.718;21.786;2023-12-20T03:44:19;97.45;;;31.75;;
79646;SDS011;69119;41.718;21.786;2023-12-20T03:46:45;62.83;;;26.55;;
79646;SDS011;69119;41.718;21.786;2023-12-20T03:49:11;43.45;;;20.70;;
79646;SDS011;69119;41.718;21.786;2023-12-20T03:51:37;50.38;;;25.33;;
79646;SDS011;69119;41.718;21.786;2023-12-20T03:54:03;70.07;;;29.73;;
79646;SDS011;69119;41.718;21.786;2023-12-20T03:56:29;59.05;;;30.05;;
79646;SDS011;69119;41.718;21.786;2023-12-20T03:58:55;55.30;;;24.75;;
79646;SDS011;69119;41.718;21.786;2023-12-20T04:01:21;63.17;;;27.35;;
79646;SDS011;69119;41.718;21.786;2023-12-20T04:03:48;69.60;;;29.17;;
79646;SDS011;69119;41.718;21.786;2023-12-20T04:06:20;75.45;;;28.95;;
79646;SDS011;69119;41.718;21.786;2023-12-20T04:08:46;73.60;;;30.20;;
79646;SDS011;69119;41.718;21.786;2023-12-20T04:11:12;67.65;;;28.13;;
79646;SDS011;69119;41.718;21.786;2023-12-20T04:13:38;73.38;;;28.67;;
79646;SDS011;69119;41.718;21.786;2023-12-20T04:16:04;96.10;;;29.02;;
79646;SDS011;69119;41.718;21.786;2023-12-20T04:18:30;84.28;;;31.10;;
79646;SDS011;69119;41.718;21.786;2023-12-20T04:20:57;93.80;;;28.92;;
79646;SDS011;69119;41.718;21.786;2023-12-20T04:23:23;100.57;;;32.55;;
79646;SDS011;69119;41.718;21.786;2023-12-20T04:25:49;169.10;;;41.35;;
79646;SDS011;69119;41.718;21.786;2023-12-20T04:28:15;209.77;;;42.70;;
79646;SDS011;69119;41.718;21.786;2023-12-20T04:30:41;177.10;;;34.20;;
79646;SDS011;69119;41.718;21.786;2023-12-20T04:33:08;89.30;;;28.25;;
79646;SDS011;69119;41.718;21.786;2023-12-20T04:35:34;64.72;;;24.48;;
79646;SDS011;69119;41.718;21.786;2023-12-20T04:38:00;119.00;;;29.90;;
79646;SDS011;69119;41.718;21.786;2023-12-20T04:40:26;156.85;;;35.38;;
79646;SDS011;69119;41.718;21.786;2023-12-20T04:42:52;95.80;;;27.58;;
79646;SDS011;69119;41.718;21.786;2023-12-20T04:45:18;66.03;;;24.45;;
79646;SDS011;69119;41.718;21.786;2023-12-20T04:47:44;104.53;;;25.08;;
79646;SDS011;69119;41.718;21.786;2023-12-20T04:50:12;79.85;;;22.95;;
79646;SDS011;69119;41.718;21.786;2023-12-20T04:52:38;54.53;;;18.38;;
79646;SDS011;69119;41.718;21.786;2023-12-20T04:55:04;114.95;;;28.00;;
79646;SDS011;69119;41.718;21.786;2023-12-20T04:57:31;49.97;;;20.38;;
79646;SDS011;69119;41.718;21.786;2023-12-20T04:59:57;42.67;;;18.08;;
79646;SDS011;69119;41.718;21.786;2023-12-20T05:02:23;41.17;;;16.92;;
79646;SDS011;69119;41.718;21.786;2023-12-20T05:04:49;51.22;;;21.75;;
79646;SDS011;69119;41.718;21.786;2023-12-20T05:07:15;85.35;;;28.13;;
79646;SDS011;69119;41.718;21.786;2023-12-20T05:09:41;115.18;;;30.27;;
79646;SDS011;69119;41.718;21.786;2023-12-20T05:12:07;97.43;;;26.25;;
79646;SDS011;69119;41.718;21.786;2023-12-20T05:14:34;74.85;;;25.33;;
79646;SDS011;69119;41.718;21.786;2023-12-20T05:17:00;80.20;;;25.80;;
79646;SDS011;69119;41.718;21.786;2023-12-20T05:19:26;146.25;;;34.08;;
79646;SDS011;69119;41.718;21.786;2023-12-20T05:21:52;74.40;;;27.88;;
79646;SDS011;69119;41.718;21.786;2023-12-20T05:24:18;69.70;;;23.00;;
79646;SDS011;69119;41.718;21.786;2023-12-20T05:26:44;61.40;;;24.30;;
79646;SDS011;69119;41.718;21.786;2023-12-20T05:29:10;83.97;;;31.83;;
79646;SDS011;69119;41.718;21.786;2023-12-20T05:31:36;72.32;;;28.38;;
79646;SDS011;69119;41.718;21.786;2023-12-20T05:34:02;68.15;;;27.92;;
79646;SDS011;69119;41.718;21.786;2023-12-20T05:36:28;62.75;;;27.80;;
79646;SDS011;69119;41.718;21.786;2023-12-20T05:38:54;65.63;;;27.15;;
79646;SDS011;69119;41.718;21.786;2023-12-20T05:41:20;71.82;;;30.70;;
79646;SDS011;69119;41.718;21.786;2023-12-20T05:43:46;71.07;;;30.63;;
79646;SDS011;69119;41.718;21.786;2023-12-20T05:46:13;52.38;;;25.10;;
79646;SDS011;69119;41.718;21.786;2023-12-20T05:48:39;55.03;;;25.25;;
79646;SDS011;69119;41.718;21.786;2023-12-20T05:51:05;50.88;;;24.88;;
79646;SDS011;69119;41.718;21.786;2023-12-20T05:53:31;88.93;;;32.95;;
79646;SDS011;69119;41.718;21.786;2023-12-20T05:55:57;64.35;;;25.77;;
79646;SDS011;69119;41.718;21.786;2023-12-20T05:58:23;63.08;;;22.23;;
79646;SDS011;69119;41.718;21.786;2023-12-20T06:00:49;44.10;;;21.27;;
79646;SDS011;69119;41.718;21.786;2023-12-20T06:03:15;54.80;;;23.63;;
79646;SDS011;69119;41.718;21.786;2023-12-20T06:05:41;39.50;;;19.10;;
79646;SDS011;69119;41.718;21.786;2023-12-20T06:08:07;71.68;;;25.92;;
79646;SDS011;69119;41.718;21.786;2023-12-20T06:10:33;46.45;;;19.50;;
79646;SDS011;69119;41.718;21.786;2023-12-20T06:12:59;60.75;;;26.73;;
79646;SDS011;69119;41.718;21.786;2023-12-20T06:15:25;67.72;;;28.42;;
79646;SDS011;69119;41.718;21.786;2023-12-20T06:17:52;96.50;;;30.52;;
79646;SDS011;69119;41.718;21.786;2023-12-20T06:20:18;95.13;;;36.08;;
79646;SDS011;69119;41.718;21.786;2023-12-20T06:22:44;103.90;;;36.15;;
79646;SDS011;69119;41.718;21.786;2023-12-20T06:25:10;78.82;;;29.73;;
79646;SDS011;69119;41.718;21.786;2023-12-20T06:27:36;88.35;;;29.20;;
79646;SDS011;69119;41.718;21.786;2023-12-20T06:30:02;59.92;;;24.92;;
79646;SDS011;69119;41.718;21.786;2023-12-20T06:32:28;105.03;;;35.15;;
79646;SDS011;69119;41.718;21.786;2023-12-20T06:34:55;86.68;;;27.77;;
79646;SDS011;69119;41.718;21.786;2023-12-20T06:37:21;50.63;;;22.27;;
79646;SDS011;69119;41.718;21.786;2023-12-20T06:39:47;135.35;;;35.15;;
79646;SDS011;69119;41.718;21.786;2023-12-20T06:42:13;91.60;;;28.98;;
79646;SDS011;69119;41.718;21.786;2023-12-20T06:44:39;61.80;;;27.42;;
79646;SDS011;69119;41.718;21.786;2023-12-20T06:47:09;53.17;;;25.23;;
79646;SDS011;69119;41.718;21.786;2023-12-20T06:49:35;55.70;;;26.33;;
79646;SDS011;69119;41.718;21.786;2023-12-20T06:52:01;46.15;;;23.73;;
79646;SDS011;69119;41.718;21.786;2023-12-20T06:54:27;48.60;;;24.15;;
79646;SDS011;69119;41.718;21.786;2023-12-20T06:56:53;52.05;;;24.63;;
79646;SDS011;69119;41.718;21.786;2023-12-20T06:59:19;56.05;;;27.63;;
79646;SDS011;69119;41.718;21.786;2023-12-20T07:01:48;97.85;;;34.58;;
79646;SDS011;69119;41.718;21.786;2023-12-20T07:04:15;83.00;;;34.47;;
79646;SDS011;69119;41.718;21.786;2023-12-20T07:06:45;86.07;;;34.08;;
79646;SDS011;69119;41.718;21.786;2023-12-20T07:09:11;74.38;;;33.00;;
79646;SDS011;69119;41.718;21.786;2023-12-20T07:11:38;87.80;;;34.75;;
79646;SDS011;69119;41.718;21.786;2023-12-20T07:14:04;86.72;;;34.65;;
79646;SDS011;69119;41.718;21.786;2023-12-20T07:16:30;80.22;;;30.33;;
79646;SDS011;69119;41.718;21.786;2023-12-20T07:18:57;138.52;;;39.97;;
79646;SDS011;69119;41.718;21.786;2023-12-20T07:21:24;107.82;;;33.35;;
79646;SDS011;69119;41.718;21.786;2023-12-20T07:23:50;99.10;;;39.78;;
79646;SDS011;69119;41.718;21.786;2023-12-20T07:26:17;109.22;;;37.47;;
79646;SDS011;69119;41.718;21.786;2023-12-20T07:28:43;84.90;;;34.08;;
79646;SDS011;69119;41.718;21.786;2023-12-20T07:31:09;90.97;;;38.88;;
79646;SDS011;69119;41.718;21.786;2023-12-20T07:33:37;212.00;;;46.33;;
79646;SDS011;69119;41.718;21.786;2023-12-20T07:36:03;89.88;;;33.55;;
79646;SDS011;69119;41.718;21.786;2023-12-20T07:38:29;74.50;;;31.40;;
79646;SDS011;69119;41.718;21.786;2023-12-20T07:40:55;88.05;;;33.88;;
79646;SDS011;69119;41.718;21.786;2023-12-20T07:43:21;110.28;;;29.05;;
79646;SDS011;69119;41.718;21.786;2023-12-20T07:45:47;160.27;;;43.95;;
79646;SDS011;69119;41.718;21.786;2023-12-20T07:48:13;100.78;;;34.40;;
79646;SDS011;69119;41.718;21.786;2023-12-20T07:50:40;155.05;;;40.05;;
79646;SDS011;69119;41.718;21.786;2023-12-20T07:53:06;128.55;;;34.28;;
79646;SDS011;69119;41.718;21.786;2023-12-20T07:55:32;74.47;;;29.15;;
79646;SDS011;69119;41.718;21.786;2023-12-20T07:57:58;129.85;;;37.15;;
79646;SDS011;69119;41.718;21.786;2023-12-20T08:00:24;75.07;;;32.30;;
79646;SDS011;69119;41.718;21.786;2023-12-20T08:02:51;83.72;;;35.92;;
79646;SDS011;69119;41.718;21.786;2023-12-20T08:05:17;85.57;;;36.15;;
79646;SDS011;69119;41.718;21.786;2023-12-20T08:07:43;104.95;;;37.13;;
79646;SDS011;69119;41.718;21.786;2023-12-20T08:10:09;116.97;;;40.67;;
79646;SDS011;69119;41.718;21.786;2023-12-20T08:12:35;84.53;;;33.70;;
79646;SDS011;69119;41.718;21.786;2023-12-20T08:15:01;81.20;;;35.38;;
79646;SDS011;69119;41.718;21.786;2023-12-20T08:17:28;105.75;;;43.90;;
79646;SDS011;69119;41.718;21.786;2023-12-20T08:19:54;129.07;;;41.72;;
79646;SDS011;69119;41.718;21.786;2023-12-20T08:22:21;93.53;;;33.80;;
79646;SDS011;69119;41.718;21.786;2023-12-20T08:24:47;95.00;;;36.90;;
79646;SDS011;69119;41.718;21.786;2023-12-20T08:27:13;90.28;;;34.53;;
79646;SDS011;69119;41.718;21.786;2023-12-20T08:29:39;164.60;;;44.97;;
79646;SDS011;69119;41.718;21.786;2023-12-20T08:32:05;181.32;;;44.35;;
79646;SDS011;69119;41.718;21.786;2023-12-20T08:34:31;141.00;;;44.45;;
79646;SDS011;69119;41.718;21.786;2023-12-20T08:36:57;104.90;;;39.90;;
79646;SDS011;69119;41.718;21.786;2023-12-20T08:39:23;192.05;;;48.58;;
79646;SDS011;69119;41.718;21.786;2023-12-20T08:41:49;94.60;;;38.72;;
79646;SDS011;69119;41.718;21.786;2023-12-20T08:44:15;101.13;;;36.40;;
79646;SDS011;69119;41.718;21.786;2023-12-20T08:46:41;84.65;;;31.73;;
79646;SDS011;69119;41.718;21.786;2023-12-20T08:49:07;76.55;;;32.42;;
79646;SDS011;69119;41.718;21.786;2023-12-20T08:51:36;50.58;;;24.83;;
79646;SDS011;69119;41.718;21.786;2023-12-20T08:54:05;90.05;;;33.65;;
79646;SDS011;69119;41.718;21.786;2023-12-20T08:56:33;77.20;;;29.52;;
79646;SDS011;69119;41.718;21.786;2023-12-20T08:58:59;78.30;;;33.15;;
79646;SDS011;69119;41.718;21.786;2023-12-20T09:01:25;89.57;;;35.00;;
79646;SDS011;69119;41.718;21.786;2023-12-20T09:03:51;64.90;;;30.88;;
79646;SDS011;69119;41.718;21.786;2023-12-20T09:06:17;89.63;;;37.42;;
79646;SDS011;69119;41.718;21.786;2023-12-20T09:08:43;87.57;;;37.53;;
79646;SDS011;69119;41.718;21.786;2023-12-20T09:11:10;80.07;;;31.42;;
79646;SDS011;69119;41.718;21.786;2023-12-20T09:13:36;90.28;;;36.90;;
79646;SDS011;69119;41.718;21.786;2023-12-20T09:16:02;88.32;;;38.88;;
79646;SDS011;69119;41.718;21.786;2023-12-20T09:18:29;77.75;;;34.33;;
79646;SDS011;69119;41.718;21.786;2023-12-20T09:20:55;93.18;;;37.20;;
79646;SDS011;69119;41.718;21.786;2023-12-20T09:23:21;86.93;;;41.65;;
79646;SDS011;69119;41.718;21.786;2023-12-20T09:25:47;75.68;;;36.42;;
79646;SDS011;69119;41.718;21.786;2023-12-20T09:28:13;64.57;;;33.08;;
79646;SDS011;69119;41.718;21.786;2023-12-20T09:30:39;71.80;;;30.05;;
79646;SDS011;69119;41.718;21.786;2023-12-20T09:33:06;65.90;;;29.92;;
79646;SDS011;69119;41.718;21.786;2023-12-20T09:35:32;76.53;;;37.30;;
79646;SDS011;69119;41.718;21.786;2023-12-20T09:37:58;87.22;;;39.58;;
79646;SDS011;69119;41.718;21.786;2023-12-20T09:40:25;88.32;;;35.00;;
79646;SDS011;69119;41.718;21.786;2023-12-20T09:43:00;84.53;;;36.38;;
79646;SDS011;69119;41.718;21.786;2023-12-20T09:45:29;78.38;;;36.88;;
79646;SDS011;69119;41.718;21.786;2023-12-20T09:47:56;81.53;;;36.42;;
79646;SDS011;69119;41.718;21.786;2023-12-20T09:50:23;72.30;;;33.40;;
79646;SDS011;69119;41.718;21.786;2023-12-20T09:52:50;78.10;;;40.08;;
79646;SDS011;69119;41.718;21.786;2023-12-20T09:55:17;68.45;;;33.67;;
79646;SDS011;69119;41.718;21.786;2023-12-20T09:57:47;68.95;;;38.08;;
79646;SDS011;69119;41.718;21.786;2023-12-20T10:00:13;67.90;;;38.42;;
79646;SDS011;69119;41.718;21.786;2023-12-20T10:02:42;74.97;;;41.33;;
79646;SDS011;69119;41.718;21.786;2023-12-20T10:05:14;66.93;;;40.55;;
79646;SDS011;69119;41.718;21.786;2023-12-20T10:07:41;73.07;;;40.67;;
79646;SDS011;69119;41.718;21.786;2023-12-20T10:10:07;66.93;;;37.28;;
79646;SDS011;69119;41.718;21.786;2023-12-20T10:12:34;47.20;;;26.85;;
79646;SDS011;69119;41.718;21.786;2023-12-20T10:15:00;55.10;;;35.08;;
79646;SDS011;69119;41.718;21.786;2023-12-20T10:17:27;55.70;;;32.50;;
79646;SDS011;69119;41.718;21.786;2023-12-20T10:19:54;53.67;;;33.47;;
79646;SDS011;69119;41.718;21.786;2023-12-20T10:22:21;52.55;;;32.28;;
79646;SDS011;69119;41.718;21.786;2023-12-20T10:24:47;45.13;;;29.15;;
79646;SDS011;69119;41.718;21.786;2023-12-20T10:27:13;63.00;;;38.67;;
79646;SDS011;69119;41.718;21.786;2023-12-20T10:29:39;66.22;;;39.95;;
79646;SDS011;69119;41.718;21.786;2023-12-20T10:32:27;62.40;;;37.08;;
79646;SDS011;69119;41.718;21.786;2023-12-20T10:34:53;66.80;;;40.88;;
79646;SDS011;69119;41.718;21.786;2023-12-20T10:37:20;68.82;;;42.72;;
79646;SDS011;69119;41.718;21.786;2023-12-20T10:39:50;55.40;;;35.30;;
79646;SDS011;69119;41.718;21.786;2023-12-20T10:42:17;49.25;;;29.23;;
79646;SDS011;69119;41.718;21.786;2023-12-20T10:44:44;65.10;;;38.28;;
79646;SDS011;69119;41.718;21.786;2023-12-20T10:47:10;62.95;;;37.35;;
79646;SDS011;69119;41.718;21.786;2023-12-20T10:49:37;53.05;;;34.08;;
79646;SDS011;69119;41.718;21.786;2023-12-20T10:52:03;48.70;;;32.13;;
79646;SDS011;69119;41.718;21.786;2023-12-20T10:54:32;39.08;;;26.10;;
79646;SDS011;69119;41.718;21.786;2023-12-20T10:56:58;40.20;;;25.80;;
79646;SDS011;69119;41.718;21.786;2023-12-20T10:59:24;41.72;;;25.95;;
79646;SDS011;69119;41.718;21.786;2023-12-20T11:01:51;69.80;;;45.95;;
79646;SDS011;69119;41.718;21.786;2023-12-20T11:04:25;65.68;;;39.67;;
79646;SDS011;69119;41.718;21.786;2023-12-20T11:06:56;71.28;;;48.33;;
79646;SDS011;69119;41.718;21.786;2023-12-20T11:09:35;62.75;;;41.85;;
79646;SDS011;69119;41.718;21.786;2023-12-20T11:12:09;73.78;;;43.67;;
79646;SDS011;69119;41.718;21.786;2023-12-20T11:14:54;48.15;;;33.65;;
79646;SDS011;69119;41.718;21.786;2023-12-20T11:17:22;52.67;;;33.78;;
79646;SDS011;69119;41.718;21.786;2023-12-20T11:22:15;58.42;;;36.78;;
79646;SDS011;69119;41.718;21.786;2023-12-20T11:24:44;57.30;;;37.50;;
79646;SDS011;69119;41.718;21.786;2023-12-20T11:27:12;61.63;;;39.40;;
79646;SDS011;69119;41.718;21.786;2023-12-20T11:29:38;66.45;;;42.85;;
79646;SDS011;69119;41.718;21.786;2023-12-20T11:34:53;87.50;;;55.00;;
79646;SDS011;69119;41.718;21.786;2023-12-20T11:37:20;83.70;;;54.95;;
79646;SDS011;69119;41.718;21.786;2023-12-20T11:39:56;85.43;;;51.15;;
79646;SDS011;69119;41.718;21.786;2023-12-20T11:42:22;82.20;;;51.47;;
79646;SDS011;69119;41.718;21.786;2023-12-20T11:44:48;76.57;;;49.72;;
79646;SDS011;69119;41.718;21.786;2023-12-20T11:47:15;68.38;;;45.92;;
79646;SDS011;69119;41.718;21.786;2023-12-20T11:49:44;73.70;;;48.50;;
79646;SDS011;69119;41.718;21.786;2023-12-20T11:52:11;67.28;;;43.70;;
79646;SDS011;69119;41.718;21.786;2023-12-20T11:54:38;66.07;;;43.53;;
79646;SDS011;69119;41.718;21.786;2023-12-20T11:57:04;58.60;;;42.55;;
79646;SDS011;69119;41.718;21.786;2023-12-20T11:59:30;48.63;;;33.38;;
79646;SDS011;69119;41.718;21.786;2023-12-20T12:01:58;39.85;;;24.75;;
79646;SDS011;69119;41.718;21.786;2023-12-20T12:04:26;47.47;;;29.85;;
79646;SDS011;69119;41.718;21.786;2023-12-20T12:06:53;53.72;;;34.95;;
79646;SDS011;69119;41.718;21.786;2023-12-20T12:09:19;46.67;;;30.92;;
79646;SDS011;69119;41.718;21.786;2023-12-20T12:11:45;49.60;;;31.73;;
79646;SDS011;69119;41.718;21.786;2023-12-20T12:14:11;50.55;;;32.03;;
79646;SDS011;69119;41.718;21.786;2023-12-20T12:16:37;46.08;;;30.90;;
79646;SDS011;69119;41.718;21.786;2023-12-20T12:19:04;37.20;;;24.80;;
79646;SDS011;69119;41.718;21.786;2023-12-20T12:21:30;42.22;;;28.58;;
79646;SDS011;69119;41.718;21.786;2023-12-20T12:24:08;48.13;;;32.60;;
79646;SDS011;69119;41.718;21.786;2023-12-20T12:26:35;55.95;;;36.67;;
79646;SDS011;69119;41.718;21.786;2023-12-20T12:29:01;61.63;;;37.22;;
79646;SDS011;69119;41.718;21.786;2023-12-20T12:31:27;59.53;;;41.10;;
79646;SDS011;69119;41.718;21.786;2023-12-20T12:33:53;46.72;;;30.25;;
79646;SDS011;69119;41.718;21.786;2023-12-20T12:36:19;35.38;;;26.92;;
79646;SDS011;69119;41.718;21.786;2023-12-20T12:38:46;37.30;;;25.10;;
79646;SDS011;69119;41.718;21.786;2023-12-20T12:41:12;42.45;;;23.65;;
79646;SDS011;69119;41.718;21.786;2023-12-20T12:43:40;51.08;;;32.88;;
79646;SDS011;69119;41.718;21.786;2023-12-20T12:46:06;47.85;;;30.08;;
79646;SDS011;69119;41.718;21.786;2023-12-20T12:48:32;45.53;;;30.80;;
79646;SDS011;69119;41.718;21.786;2023-12-20T12:50:58;43.08;;;30.27;;
79646;SDS011;69119;41.718;21.786;2023-12-20T12:53:25;44.90;;;27.80;;
79646;SDS011;69119;41.718;21.786;2023-12-20T12:55:52;46.30;;;26.10;;
79646;SDS011;69119;41.718;21.786;2023-12-20T12:58:19;57.53;;;34.78;;
79646;SDS011;69119;41.718;21.786;2023-12-20T13:00:46;36.17;;;20.33;;
79646;SDS011;69119;41.718;21.786;2023-12-20T13:03:12;35.55;;;25.23;;
79646;SDS011;69119;41.718;21.786;2023-12-20T13:05:38;38.28;;;26.17;;
79646;SDS011;69119;41.718;21.786;2023-12-20T13:08:04;45.47;;;27.10;;
79646;SDS011;69119;41.718;21.786;2023-12-20T13:10:31;43.45;;;29.30;;
79646;SDS011;69119;41.718;21.786;2023-12-20T13:12:57;44.08;;;28.27;;
79646;SDS011;69119;41.718;21.786;2023-12-20T13:15:23;46.30;;;30.83;;
79646;SDS011;69119;41.718;21.786;2023-12-20T13:17:49;44.65;;;28.95;;
79646;SDS011;69119;41.718;21.786;2023-12-20T13:20:15;48.92;;;32.10;;
79646;SDS011;69119;41.718;21.786;2023-12-20T13:22:41;47.53;;;29.65;;
79646;SDS011;69119;41.718;21.786;2023-12-20T13:25:08;49.58;;;29.88;;
79646;SDS011;69119;41.718;21.786;2023-12-20T13:27:34;40.47;;;25.55;;
79646;SDS011;69119;41.718;21.786;2023-12-20T13:30:00;36.88;;;24.55;;
79646;SDS011;69119;41.718;21.786;2023-12-20T13:32:26;30.50;;;20.30;;
79646;SDS011;69119;41.718;21.786;2023-12-20T13:34:52;27.83;;;20.23;;
79646;SDS011;69119;41.718;21.786;2023-12-20T13:37:18;36.60;;;23.98;;
79646;SDS011;69119;41.718;21.786;2023-12-20T13:39:44;36.42;;;20.45;;
79646;SDS011;69119;41.718;21.786;2023-12-20T13:42:11;45.75;;;26.35;;
79646;SDS011;69119;41.718;21.786;2023-12-20T13:44:37;43.05;;;28.35;;
79646;SDS011;69119;41.718;21.786;2023-12-20T13:47:03;45.83;;;30.27;;
79646;SDS011;69119;41.718;21.786;2023-12-20T13:49:29;46.83;;;28.58;;
79646;SDS011;69119;41.718;21.786;2023-12-20T13:51:55;47.15;;;30.52;;
79646;SDS011;69119;41.718;21.786;2023-12-20T13:54:22;50.17;;;29.83;;
79646;SDS011;69119;41.718;21.786;2023-12-20T13:56:49;55.40;;;34.60;;
79646;SDS011;69119;41.718;21.786;2023-12-20T13:59:15;60.83;;;31.75;;
79646;SDS011;69119;41.718;21.786;2023-12-20T14:01:41;86.10;;;43.53;;
79646;SDS011;69119;41.718;21.786;2023-12-20T14:04:07;86.45;;;47.88;;
79646;SDS011;69119;41.718;21.786;2023-12-20T14:06:33;67.78;;;39.60;;
79646;SDS011;69119;41.718;21.786;2023-12-20T14:08:59;57.97;;;35.13;;
79646;SDS011;69119;41.718;21.786;2023-12-20T14:11:26;57.95;;;34.05;;
79646;SDS011;69119;41.718;21.786;2023-12-20T14:13:52;50.10;;;33.03;;